Highland-University Park's Hourly Summary for Thursday, May 10, 2018
Hour Temp
(f)
RH
(%)
Solar Rad.
(MJ/m2)
Rainfall
(in)
Wind
(mph)
5/10/2018 12:00 AM 76 46 0 0 2.3
5/10/2018 1:00 AM 75 46 0 0 2.04
5/10/2018 2:00 AM 74 46 0 0 2.37
5/10/2018 3:00 AM 73 47 0 0 2.58
5/10/2018 4:00 AM 71 51 0 0 1.98
5/10/2018 5:00 AM 69 53 0 0 1.94
5/10/2018 6:00 AM 67 60 0 0 1.36
5/10/2018 7:00 AM 66 70 0.01 0 1.2
5/10/2018 8:00 AM 66 80 0.1 0 1.8
5/10/2018 9:00 AM 68 72 0.26 0 2.27
5/10/2018 10:00 AM 73 58 1.78 0 2.44
5/10/2018 11:00 AM 78 50 2.45 0 1.83
5/10/2018 12:00 PM 81 41 2.95 0 2.21
5/10/2018 1:00 PM 82 38 3.21 0 3.46
5/10/2018 2:00 PM 84 39 3.29 0 3.34
5/10/2018 3:00 PM 85 37 3.07 0 2.99
5/10/2018 4:00 PM 85 34 2.56 0 3.02
5/10/2018 5:00 PM 85 37 2.31 0 3.99
5/10/2018 6:00 PM 86 38 1.67 0 3.29
5/10/2018 7:00 PM 85 38 0.98 0 3.2
5/10/2018 8:00 PM 83 39 0.14 0 3.43
5/10/2018 9:00 PM 80 44 0.01 0 2.62
5/10/2018 10:00 PM 78 48 0 0 2.52
5/10/2018 11:00 PM 77 52 0 0 3.67
Data Summary 76 48 24.79 0.00 2.58